sensor_id;sensor_type;location;lat;lon;timestamp;P1;durP1;ratioP1;P2;durP2;ratioP2
26034;SDS011;13809;48.632;11.576;2022-07-25T00:02:43;8.67;;;7.97;;
26034;SDS011;13809;48.632;11.576;2022-07-25T00:07:46;8.53;;;7.93;;
26034;SDS011;13809;48.632;11.576;2022-07-25T00:12:49;8.33;;;7.63;;
26034;SDS011;13809;48.632;11.576;2022-07-25T00:17:54;8.50;;;7.90;;
26034;SDS011;13809;48.632;11.576;2022-07-25T00:22:57;8.57;;;7.83;;
26034;SDS011;13809;48.632;11.576;2022-07-25T00:28:01;8.90;;;8.27;;
26034;SDS011;13809;48.632;11.576;2022-07-25T00:33:06;8.60;;;7.90;;
26034;SDS011;13809;48.632;11.576;2022-07-25T00:38:09;8.13;;;7.47;;
26034;SDS011;13809;48.632;11.576;2022-07-25T00:43:12;8.27;;;7.57;;
26034;SDS011;13809;48.632;11.576;2022-07-25T00:48:16;9.00;;;8.20;;
26034;SDS011;13809;48.632;11.576;2022-07-25T00:53:20;8.47;;;7.77;;
26034;SDS011;13809;48.632;11.576;2022-07-25T00:58:23;7.63;;;7.13;;
26034;SDS011;13809;48.632;11.576;2022-07-25T01:03:28;9.40;;;8.47;;
26034;SDS011;13809;48.632;11.576;2022-07-25T01:08:32;7.40;;;6.90;;
26034;SDS011;13809;48.632;11.576;2022-07-25T01:13:36;8.10;;;7.40;;
26034;SDS011;13809;48.632;11.576;2022-07-25T01:18:41;8.67;;;8.03;;
26034;SDS011;13809;48.632;11.576;2022-07-25T01:23:45;8.73;;;7.83;;
26034;SDS011;13809;48.632;11.576;2022-07-25T01:28:48;8.90;;;8.10;;
26034;SDS011;13809;48.632;11.576;2022-07-25T01:33:51;9.27;;;8.50;;
26034;SDS011;13809;48.632;11.576;2022-07-25T01:38:56;8.43;;;7.83;;
26034;SDS011;13809;48.632;11.576;2022-07-25T01:43:59;8.60;;;8.00;;
26034;SDS011;13809;48.632;11.576;2022-07-25T01:49:03;9.27;;;8.57;;
26034;SDS011;13809;48.632;11.576;2022-07-25T01:54:08;9.70;;;8.90;;
26034;SDS011;13809;48.632;11.576;2022-07-25T01:59:11;9.13;;;8.43;;
26034;SDS011;13809;48.632;11.576;2022-07-25T02:04:15;8.43;;;7.77;;
26034;SDS011;13809;48.632;11.576;2022-07-25T02:09:19;8.47;;;7.80;;
26034;SDS011;13809;48.632;11.576;2022-07-25T02:14:23;9.30;;;8.60;;
26034;SDS011;13809;48.632;11.576;2022-07-25T02:19:26;9.30;;;8.60;;
26034;SDS011;13809;48.632;11.576;2022-07-25T02:24:30;8.07;;;7.37;;
26034;SDS011;13809;48.632;11.576;2022-07-25T02:29:33;8.63;;;8.00;;
26034;SDS011;13809;48.632;11.576;2022-07-25T02:34:37;8.73;;;8.13;;
26034;SDS011;13809;48.632;11.576;2022-07-25T02:39:41;9.23;;;8.47;;
26034;SDS011;13809;48.632;11.576;2022-07-25T02:44:45;9.90;;;9.00;;
26034;SDS011;13809;48.632;11.576;2022-07-25T02:49:48;9.60;;;8.90;;
26034;SDS011;13809;48.632;11.576;2022-07-25T02:54:52;7.80;;;7.20;;
26034;SDS011;13809;48.632;11.576;2022-07-25T02:59:55;8.50;;;7.80;;
26034;SDS011;13809;48.632;11.576;2022-07-25T03:04:59;8.00;;;7.30;;
26034;SDS011;13809;48.632;11.576;2022-07-25T03:10:04;8.30;;;7.70;;
26034;SDS011;13809;48.632;11.576;2022-07-25T03:15:11;8.60;;;8.00;;
26034;SDS011;13809;48.632;11.576;2022-07-25T03:20:15;10.50;;;9.53;;
26034;SDS011;13809;48.632;11.576;2022-07-25T03:25:20;9.13;;;8.43;;
26034;SDS011;13809;48.632;11.576;2022-07-25T03:30:23;9.27;;;8.57;;
26034;SDS011;13809;48.632;11.576;2022-07-25T03:35:26;8.07;;;7.47;;
26034;SDS011;13809;48.632;11.576;2022-07-25T03:40:31;8.43;;;7.83;;
26034;SDS011;13809;48.632;11.576;2022-07-25T03:45:34;9.87;;;8.97;;
26034;SDS011;13809;48.632;11.576;2022-07-25T03:50:38;8.53;;;7.80;;
26034;SDS011;13809;48.632;11.576;2022-07-25T03:55:42;9.00;;;8.20;;
26034;SDS011;13809;48.632;11.576;2022-07-25T04:00:46;8.97;;;8.37;;
26034;SDS011;13809;48.632;11.576;2022-07-25T04:05:49;9.00;;;8.30;;
26034;SDS011;13809;48.632;11.576;2022-07-25T04:10:53;8.10;;;7.50;;
26034;SDS011;13809;48.632;11.576;2022-07-25T04:15:57;8.73;;;8.10;;
26034;SDS011;13809;48.632;11.576;2022-07-25T04:21:00;8.73;;;8.13;;
26034;SDS011;13809;48.632;11.576;2022-07-25T04:26:04;8.63;;;8.03;;
26034;SDS011;13809;48.632;11.576;2022-07-25T04:31:08;8.30;;;7.60;;
26034;SDS011;13809;48.632;11.576;2022-07-25T04:36:11;8.90;;;8.20;;
26034;SDS011;13809;48.632;11.576;2022-07-25T04:41:16;8.87;;;8.17;;
26034;SDS011;13809;48.632;11.576;2022-07-25T04:46:19;8.10;;;7.50;;
26034;SDS011;13809;48.632;11.576;2022-07-25T04:51:23;8.90;;;8.20;;
26034;SDS011;13809;48.632;11.576;2022-07-25T04:56:28;9.30;;;8.60;;
26034;SDS011;13809;48.632;11.576;2022-07-25T05:01:31;9.20;;;8.43;;
26034;SDS011;13809;48.632;11.576;2022-07-25T05:06:34;9.47;;;8.57;;
26034;SDS011;13809;48.632;11.576;2022-07-25T05:11:39;9.00;;;8.23;;
26034;SDS011;13809;48.632;11.576;2022-07-25T05:16:48;10.13;;;9.30;;
26034;SDS011;13809;48.632;11.576;2022-07-25T05:21:52;10.90;;;9.90;;
26034;SDS011;13809;48.632;11.576;2022-07-25T05:26:56;9.80;;;9.00;;
26034;SDS011;13809;48.632;11.576;2022-07-25T05:32:01;10.33;;;9.50;;
26034;SDS011;13809;48.632;11.576;2022-07-25T05:37:04;12.57;;;11.50;;
26034;SDS011;13809;48.632;11.576;2022-07-25T05:42:09;10.80;;;9.73;;
26034;SDS011;13809;48.632;11.576;2022-07-25T05:47:12;10.50;;;9.60;;
26034;SDS011;13809;48.632;11.576;2022-07-25T05:52:16;10.30;;;9.47;;
26034;SDS011;13809;48.632;11.576;2022-07-25T05:57:20;11.17;;;10.27;;
26034;SDS011;13809;48.632;11.576;2022-07-25T06:02:23;9.97;;;9.17;;
26034;SDS011;13809;48.632;11.576;2022-07-25T06:07:27;10.63;;;9.80;;
26034;SDS011;13809;48.632;11.576;2022-07-25T06:12:31;11.17;;;10.03;;
26034;SDS011;13809;48.632;11.576;2022-07-25T06:17:37;10.07;;;9.33;;
26034;SDS011;13809;48.632;11.576;2022-07-25T06:22:40;10.17;;;9.47;;
26034;SDS011;13809;48.632;11.576;2022-07-25T06:27:45;10.00;;;9.20;;
26034;SDS011;13809;48.632;11.576;2022-07-25T06:32:48;11.27;;;10.37;;
26034;SDS011;13809;48.632;11.576;2022-07-25T06:37:52;11.37;;;10.47;;
26034;SDS011;13809;48.632;11.576;2022-07-25T06:42:56;10.87;;;10.07;;
26034;SDS011;13809;48.632;11.576;2022-07-25T06:47:59;10.10;;;9.30;;
26034;SDS011;13809;48.632;11.576;2022-07-25T06:53:04;9.77;;;8.97;;
26034;SDS011;13809;48.632;11.576;2022-07-25T06:58:08;9.77;;;9.07;;
26034;SDS011;13809;48.632;11.576;2022-07-25T07:03:11;9.93;;;9.23;;
26034;SDS011;13809;48.632;11.576;2022-07-25T07:08:15;10.73;;;9.83;;
26034;SDS011;13809;48.632;11.576;2022-07-25T07:13:19;10.27;;;9.47;;
26034;SDS011;13809;48.632;11.576;2022-07-25T07:18:24;10.17;;;9.37;;
26034;SDS011;13809;48.632;11.576;2022-07-25T07:23:28;9.77;;;8.97;;
26034;SDS011;13809;48.632;11.576;2022-07-25T07:28:34;9.83;;;9.13;;
26034;SDS011;13809;48.632;11.576;2022-07-25T07:33:37;10.37;;;9.67;;
26034;SDS011;13809;48.632;11.576;2022-07-25T07:38:40;10.13;;;9.33;;
26034;SDS011;13809;48.632;11.576;2022-07-25T07:43:46;10.53;;;9.73;;
26034;SDS011;13809;48.632;11.576;2022-07-25T07:48:49;10.23;;;9.53;;
26034;SDS011;13809;48.632;11.576;2022-07-25T07:53:52;10.37;;;9.47;;
26034;SDS011;13809;48.632;11.576;2022-07-25T07:59:14;10.67;;;9.87;;
26034;SDS011;13809;48.632;11.576;2022-07-25T08:04:17;9.83;;;9.13;;
26034;SDS011;13809;48.632;11.576;2022-07-25T08:09:20;10.90;;;10.00;;
26034;SDS011;13809;48.632;11.576;2022-07-25T08:14:27;10.57;;;9.77;;
26034;SDS011;13809;48.632;11.576;2022-07-25T08:19:30;10.87;;;9.97;;
26034;SDS011;13809;48.632;11.576;2022-07-25T08:24:34;10.20;;;9.50;;
26034;SDS011;13809;48.632;11.576;2022-07-25T08:29:39;10.47;;;9.73;;
26034;SDS011;13809;48.632;11.576;2022-07-25T08:34:42;10.77;;;9.97;;
26034;SDS011;13809;48.632;11.576;2022-07-25T08:39:45;10.43;;;9.67;;
26034;SDS011;13809;48.632;11.576;2022-07-25T08:44:57;10.47;;;9.73;;
26034;SDS011;13809;48.632;11.576;2022-07-25T08:50:02;9.97;;;9.27;;
26034;SDS011;13809;48.632;11.576;2022-07-25T08:55:07;9.97;;;9.17;;
26034;SDS011;13809;48.632;11.576;2022-07-25T09:00:16;9.97;;;9.27;;
26034;SDS011;13809;48.632;11.576;2022-07-25T09:05:22;10.63;;;9.83;;
26034;SDS011;13809;48.632;11.576;2022-07-25T09:10:26;10.70;;;10.00;;
26034;SDS011;13809;48.632;11.576;2022-07-25T09:15:31;10.10;;;9.23;;
26034;SDS011;13809;48.632;11.576;2022-07-25T09:20:37;9.67;;;8.97;;
26034;SDS011;13809;48.632;11.576;2022-07-25T09:25:42;9.97;;;9.20;;
26034;SDS011;13809;48.632;11.576;2022-07-25T09:30:53;10.17;;;9.47;;
26034;SDS011;13809;48.632;11.576;2022-07-25T09:35:57;10.50;;;9.80;;
26034;SDS011;13809;48.632;11.576;2022-07-25T09:41:00;10.60;;;9.70;;
26034;SDS011;13809;48.632;11.576;2022-07-25T09:46:06;10.97;;;10.17;;
26034;SDS011;13809;48.632;11.576;2022-07-25T09:51:09;10.83;;;10.03;;
26034;SDS011;13809;48.632;11.576;2022-07-25T09:56:13;10.97;;;10.20;;
26034;SDS011;13809;48.632;11.576;2022-07-25T10:01:19;9.63;;;9.00;;
26034;SDS011;13809;48.632;11.576;2022-07-25T10:06:29;10.73;;;9.97;;
26034;SDS011;13809;48.632;11.576;2022-07-25T10:11:40;10.30;;;9.50;;
26034;SDS011;13809;48.632;11.576;2022-07-25T10:17:05;10.77;;;9.97;;
26034;SDS011;13809;48.632;11.576;2022-07-25T10:22:09;10.60;;;9.80;;
26034;SDS011;13809;48.632;11.576;2022-07-25T10:27:13;9.80;;;9.20;;
26034;SDS011;13809;48.632;11.576;2022-07-25T10:32:26;10.97;;;10.17;;
26034;SDS011;13809;48.632;11.576;2022-07-25T10:37:35;10.80;;;10.00;;
26034;SDS011;13809;48.632;11.576;2022-07-25T10:42:38;10.53;;;9.83;;
26034;SDS011;13809;48.632;11.576;2022-07-25T10:47:52;11.40;;;10.47;;
26034;SDS011;13809;48.632;11.576;2022-07-25T10:52:59;10.47;;;9.70;;
26034;SDS011;13809;48.632;11.576;2022-07-25T10:58:08;9.57;;;8.87;;
26034;SDS011;13809;48.632;11.576;2022-07-25T11:03:20;10.07;;;9.37;;
26034;SDS011;13809;48.632;11.576;2022-07-25T11:08:29;10.13;;;9.33;;
26034;SDS011;13809;48.632;11.576;2022-07-25T11:13:36;9.97;;;9.27;;
26034;SDS011;13809;48.632;11.576;2022-07-25T11:18:41;10.00;;;9.30;;
26034;SDS011;13809;48.632;11.576;2022-07-25T11:23:48;9.87;;;9.27;;
26034;SDS011;13809;48.632;11.576;2022-07-25T11:28:52;9.63;;;8.83;;
26034;SDS011;13809;48.632;11.576;2022-07-25T11:33:56;8.90;;;8.20;;
26034;SDS011;13809;48.632;11.576;2022-07-25T11:39:00;8.87;;;8.27;;
26034;SDS011;13809;48.632;11.576;2022-07-25T11:44:03;9.17;;;8.50;;
26034;SDS011;13809;48.632;11.576;2022-07-25T11:49:09;9.27;;;8.57;;
26034;SDS011;13809;48.632;11.576;2022-07-25T11:54:13;8.80;;;8.20;;
26034;SDS011;13809;48.632;11.576;2022-07-25T11:59:17;8.80;;;8.20;;
26034;SDS011;13809;48.632;11.576;2022-07-25T12:04:21;8.73;;;8.20;;
26034;SDS011;13809;48.632;11.576;2022-07-25T12:09:25;8.67;;;8.07;;
26034;SDS011;13809;48.632;11.576;2022-07-25T12:14:28;8.27;;;7.77;;
26034;SDS011;13809;48.632;11.576;2022-07-25T12:19:38;8.33;;;7.73;;
26034;SDS011;13809;48.632;11.576;2022-07-25T12:24:42;8.60;;;7.80;;
26034;SDS011;13809;48.632;11.576;2022-07-25T12:29:45;8.20;;;7.60;;
26034;SDS011;13809;48.632;11.576;2022-07-25T12:34:49;7.97;;;7.47;;
26034;SDS011;13809;48.632;11.576;2022-07-25T12:39:53;7.73;;;7.13;;
26034;SDS011;13809;48.632;11.576;2022-07-25T12:44:56;7.63;;;7.13;;
26034;SDS011;13809;48.632;11.576;2022-07-25T12:50:01;7.53;;;7.00;;
26034;SDS011;13809;48.632;11.576;2022-07-25T12:55:05;6.60;;;6.20;;
26034;SDS011;13809;48.632;11.576;2022-07-25T13:00:13;6.77;;;6.30;;
26034;SDS011;13809;48.632;11.576;2022-07-25T13:05:19;6.57;;;6.17;;
26034;SDS011;13809;48.632;11.576;2022-07-25T13:10:23;6.63;;;6.20;;
26034;SDS011;13809;48.632;11.576;2022-07-25T13:15:26;7.17;;;6.67;;
26034;SDS011;13809;48.632;11.576;2022-07-25T13:20:31;7.10;;;6.50;;
26034;SDS011;13809;48.632;11.576;2022-07-25T13:25:37;6.00;;;5.63;;
26034;SDS011;13809;48.632;11.576;2022-07-25T13:30:40;6.53;;;6.13;;
26034;SDS011;13809;48.632;11.576;2022-07-25T13:35:45;7.03;;;5.70;;
26034;SDS011;13809;48.632;11.576;2022-07-25T13:40:49;6.17;;;5.77;;
26034;SDS011;13809;48.632;11.576;2022-07-25T13:45:59;6.20;;;5.67;;
26034;SDS011;13809;48.632;11.576;2022-07-25T13:51:04;6.43;;;5.93;;
26034;SDS011;13809;48.632;11.576;2022-07-25T13:56:07;5.83;;;5.43;;
26034;SDS011;13809;48.632;11.576;2022-07-25T14:01:12;6.20;;;5.80;;
26034;SDS011;13809;48.632;11.576;2022-07-25T14:06:17;6.00;;;5.57;;
26034;SDS011;13809;48.632;11.576;2022-07-25T14:11:20;6.20;;;5.80;;
26034;SDS011;13809;48.632;11.576;2022-07-25T14:16:30;6.23;;;5.73;;
26034;SDS011;13809;48.632;11.576;2022-07-25T14:21:36;5.87;;;5.50;;
26034;SDS011;13809;48.632;11.576;2022-07-25T14:26:39;6.20;;;5.80;;
26034;SDS011;13809;48.632;11.576;2022-07-25T14:31:42;6.03;;;5.63;;
26034;SDS011;13809;48.632;11.576;2022-07-25T14:36:47;6.47;;;6.07;;
26034;SDS011;13809;48.632;11.576;2022-07-25T14:41:50;6.10;;;5.70;;
26034;SDS011;13809;48.632;11.576;2022-07-25T14:46:53;6.47;;;6.07;;
26034;SDS011;13809;48.632;11.576;2022-07-25T14:51:59;6.68;;;6.28;;
26034;SDS011;13809;48.632;11.576;2022-07-25T14:57:02;6.00;;;5.60;;
26034;SDS011;13809;48.632;11.576;2022-07-25T15:02:06;6.50;;;5.97;;
26034;SDS011;13809;48.632;11.576;2022-07-25T15:07:12;6.65;;;6.22;;
26034;SDS011;13809;48.632;11.576;2022-07-25T15:12:15;6.63;;;6.20;;
26034;SDS011;13809;48.632;11.576;2022-07-25T15:17:19;6.23;;;5.83;;
26034;SDS011;13809;48.632;11.576;2022-07-25T15:22:24;6.55;;;6.15;;
26034;SDS011;13809;48.632;11.576;2022-07-25T15:27:27;6.72;;;6.22;;
26034;SDS011;13809;48.632;11.576;2022-07-25T15:32:31;6.40;;;6.00;;
26034;SDS011;13809;48.632;11.576;2022-07-25T15:37:35;5.95;;;5.55;;
26034;SDS011;13809;48.632;11.576;2022-07-25T15:42:38;6.88;;;6.30;;
26034;SDS011;13809;48.632;11.576;2022-07-25T15:47:42;6.15;;;5.75;;
26034;SDS011;13809;48.632;11.576;2022-07-25T15:52:52;6.80;;;6.30;;
26034;SDS011;13809;48.632;11.576;2022-07-25T15:57:55;6.85;;;6.40;;
26034;SDS011;13809;48.632;11.576;2022-07-25T16:02:58;6.90;;;6.40;;
26034;SDS011;13809;48.632;11.576;2022-07-25T16:08:04;6.47;;;6.07;;
26034;SDS011;13809;48.632;11.576;2022-07-25T16:13:08;7.00;;;6.40;;
26034;SDS011;13809;48.632;11.576;2022-07-25T16:18:11;6.70;;;6.20;;
26034;SDS011;13809;48.632;11.576;2022-07-25T16:23:16;6.93;;;6.43;;
26034;SDS011;13809;48.632;11.576;2022-07-25T16:28:19;6.57;;;6.07;;
26034;SDS011;13809;48.632;11.576;2022-07-25T16:33:22;6.87;;;6.27;;
26034;SDS011;13809;48.632;11.576;2022-07-25T16:38:27;7.20;;;6.70;;
26034;SDS011;13809;48.632;11.576;2022-07-25T16:43:30;7.20;;;6.70;;
26034;SDS011;13809;48.632;11.576;2022-07-25T16:48:33;6.57;;;6.17;;
26034;SDS011;13809;48.632;11.576;2022-07-25T16:53:39;7.10;;;6.50;;
26034;SDS011;13809;48.632;11.576;2022-07-25T16:58:42;8.87;;;7.60;;
26034;SDS011;13809;48.632;11.576;2022-07-25T17:03:47;8.10;;;7.40;;
26034;SDS011;13809;48.632;11.576;2022-07-25T17:08:51;7.40;;;6.73;;
26034;SDS011;13809;48.632;11.576;2022-07-25T17:13:54;8.77;;;7.57;;
26034;SDS011;13809;48.632;11.576;2022-07-25T17:18:58;8.30;;;7.60;;
26034;SDS011;13809;48.632;11.576;2022-07-25T17:24:02;8.00;;;7.20;;
26034;SDS011;13809;48.632;11.576;2022-07-25T17:29:06;8.07;;;7.20;;
26034;SDS011;13809;48.632;11.576;2022-07-25T17:34:11;7.63;;;6.80;;
26034;SDS011;13809;48.632;11.576;2022-07-25T17:39:15;7.27;;;6.57;;
26034;SDS011;13809;48.632;11.576;2022-07-25T17:44:18;7.57;;;6.50;;
26034;SDS011;13809;48.632;11.576;2022-07-25T17:49:22;7.63;;;6.10;;
26034;SDS011;13809;48.632;11.576;2022-07-25T17:54:26;7.37;;;6.63;;
26034;SDS011;13809;48.632;11.576;2022-07-25T17:59:30;7.00;;;6.33;;
26034;SDS011;13809;48.632;11.576;2022-07-25T18:04:34;9.07;;;6.10;;
26034;SDS011;13809;48.632;11.576;2022-07-25T18:09:39;6.77;;;6.17;;
26034;SDS011;13809;48.632;11.576;2022-07-25T18:14:42;7.33;;;6.73;;
26034;SDS011;13809;48.632;11.576;2022-07-25T18:19:45;7.03;;;6.43;;
26034;SDS011;13809;48.632;11.576;2022-07-25T18:24:50;6.37;;;5.77;;
26034;SDS011;13809;48.632;11.576;2022-07-25T18:29:53;6.20;;;5.63;;
26034;SDS011;13809;48.632;11.576;2022-07-25T18:34:56;6.03;;;5.53;;
26034;SDS011;13809;48.632;11.576;2022-07-25T18:40:01;6.13;;;5.63;;
26034;SDS011;13809;48.632;11.576;2022-07-25T18:45:05;6.40;;;5.90;;
26034;SDS011;13809;48.632;11.576;2022-07-25T18:50:10;6.10;;;5.60;;
26034;SDS011;13809;48.632;11.576;2022-07-25T18:55:14;6.30;;;5.73;;
26034;SDS011;13809;48.632;11.576;2022-07-25T19:00:18;6.43;;;5.83;;
26034;SDS011;13809;48.632;11.576;2022-07-25T19:05:21;5.90;;;5.50;;
26034;SDS011;13809;48.632;11.576;2022-07-25T19:10:27;5.97;;;5.13;;
26034;SDS011;13809;48.632;11.576;2022-07-25T19:15:32;5.77;;;5.27;;
26034;SDS011;13809;48.632;11.576;2022-07-25T19:20:35;5.60;;;5.10;;
26034;SDS011;13809;48.632;11.576;2022-07-25T19:25:41;5.90;;;5.20;;
26034;SDS011;13809;48.632;11.576;2022-07-25T19:30:44;5.87;;;5.47;;
26034;SDS011;13809;48.632;11.576;2022-07-25T19:35:48;7.00;;;5.50;;
26034;SDS011;13809;48.632;11.576;2022-07-25T19:40:54;6.00;;;5.50;;
26034;SDS011;13809;48.632;11.576;2022-07-25T19:45:57;6.10;;;5.57;;
26034;SDS011;13809;48.632;11.576;2022-07-25T19:51:00;6.47;;;5.37;;
26034;SDS011;13809;48.632;11.576;2022-07-25T19:56:05;5.53;;;5.13;;
26034;SDS011;13809;48.632;11.576;2022-07-25T20:01:09;5.13;;;4.73;;
26034;SDS011;13809;48.632;11.576;2022-07-25T20:06:13;5.60;;;5.10;;
26034;SDS011;13809;48.632;11.576;2022-07-25T20:11:17;4.90;;;4.60;;
26034;SDS011;13809;48.632;11.576;2022-07-25T20:16:21;4.77;;;4.37;;
26034;SDS011;13809;48.632;11.576;2022-07-25T20:21:26;5.77;;;4.77;;
26034;SDS011;13809;48.632;11.576;2022-07-25T20:26:31;5.20;;;4.70;;
26034;SDS011;13809;48.632;11.576;2022-07-25T20:31:34;5.60;;;5.20;;
26034;SDS011;13809;48.632;11.576;2022-07-25T20:36:37;5.57;;;4.93;;
26034;SDS011;13809;48.632;11.576;2022-07-25T20:41:42;5.40;;;5.00;;
26034;SDS011;13809;48.632;11.576;2022-07-25T20:46:45;5.47;;;5.00;;
26034;SDS011;13809;48.632;11.576;2022-07-25T20:51:49;5.70;;;5.20;;
26034;SDS011;13809;48.632;11.576;2022-07-25T20:56:56;5.63;;;5.10;;
26034;SDS011;13809;48.632;11.576;2022-07-25T21:01:59;5.23;;;4.73;;
26034;SDS011;13809;48.632;11.576;2022-07-25T21:07:02;5.70;;;5.20;;
26034;SDS011;13809;48.632;11.576;2022-07-25T21:12:09;6.53;;;4.90;;
26034;SDS011;13809;48.632;11.576;2022-07-25T21:17:12;5.47;;;5.07;;
26034;SDS011;13809;48.632;11.576;2022-07-25T21:22:15;6.10;;;5.50;;
26034;SDS011;13809;48.632;11.576;2022-07-25T21:27:20;6.67;;;6.17;;
26034;SDS011;13809;48.632;11.576;2022-07-25T21:32:24;8.17;;;7.47;;
26034;SDS011;13809;48.632;11.576;2022-07-25T21:37:27;8.60;;;7.90;;
26034;SDS011;13809;48.632;11.576;2022-07-25T21:42:31;7.60;;;6.90;;
26034;SDS011;13809;48.632;11.576;2022-07-25T21:47:36;7.47;;;6.87;;
26034;SDS011;13809;48.632;11.576;2022-07-25T21:52:39;9.37;;;8.57;;
26034;SDS011;13809;48.632;11.576;2022-07-25T21:57:44;9.47;;;8.37;;
26034;SDS011;13809;48.632;11.576;2022-07-25T22:02:48;8.23;;;7.27;;
26034;SDS011;13809;48.632;11.576;2022-07-25T22:07:52;8.33;;;7.53;;
26034;SDS011;13809;48.632;11.576;2022-07-25T22:12:57;7.33;;;6.83;;
26034;SDS011;13809;48.632;11.576;2022-07-25T22:18:00;7.20;;;6.50;;
26034;SDS011;13809;48.632;11.576;2022-07-25T22:23:03;7.47;;;6.63;;
26034;SDS011;13809;48.632;11.576;2022-07-25T22:28:10;6.43;;;5.90;;
26034;SDS011;13809;48.632;11.576;2022-07-25T22:33:14;6.23;;;5.73;;
26034;SDS011;13809;48.632;11.576;2022-07-25T22:38:17;6.87;;;5.80;;
26034;SDS011;13809;48.632;11.576;2022-07-25T22:43:22;6.27;;;5.63;;
26034;SDS011;13809;48.632;11.576;2022-07-25T22:48:45;5.80;;;5.30;;
26034;SDS011;13809;48.632;11.576;2022-07-25T22:53:49;5.60;;;5.10;;
26034;SDS011;13809;48.632;11.576;2022-07-25T22:58:53;5.47;;;4.97;;
26034;SDS011;13809;48.632;11.576;2022-07-25T23:03:57;5.33;;;4.93;;
26034;SDS011;13809;48.632;11.576;2022-07-25T23:09:00;6.63;;;5.97;;
26034;SDS011;13809;48.632;11.576;2022-07-25T23:14:06;6.07;;;5.57;;
26034;SDS011;13809;48.632;11.576;2022-07-25T23:19:09;7.10;;;6.40;;
26034;SDS011;13809;48.632;11.576;2022-07-25T23:24:12;7.00;;;6.40;;
26034;SDS011;13809;48.632;11.576;2022-07-25T23:29:17;6.60;;;6.00;;
26034;SDS011;13809;48.632;11.576;2022-07-25T23:34:20;7.40;;;6.70;;
26034;SDS011;13809;48.632;11.576;2022-07-25T23:39:23;6.87;;;6.10;;
26034;SDS011;13809;48.632;11.576;2022-07-25T23:44:28;6.60;;;6.00;;
26034;SDS011;13809;48.632;11.576;2022-07-25T23:49:31;6.70;;;5.83;;
26034;SDS011;13809;48.632;11.576;2022-07-25T23:54:34;6.57;;;5.97;;
26034;SDS011;13809;48.632;11.576;2022-07-25T23:59:40;6.13;;;5.63;;
